Zim California — 4XIS — position and weather

sailwx.info

Track history (hours):
 
Tides and Currents Weather Stations Pressure Air Temp Water Temp Dewpoint Dewpoint Depression Visibility Wind Speed Wind Dir Waves Ship Positions

Zim California

Last reported at 2018-May-19 06:04 UTC. Time now 2018-May-24 00:36 UTC.
Position N 30°55' E 032°19'.

Type: Cargo ship. MMSI: 428010000.

Date/timePositionNaut miles runAvg speedWind from/ knotsBaromVisibWave heightAir tempDewpointWater temp
2018-May-19 06:04N 30°55' E 032°19'6 8.4
2018-May-19 05:18N 31°01' E 032°19'5 7.9
2018-May-19 04:41N 31°06' E 032°19'2 8.3
2018-May-19 04:29N 31°07' E 032°19'4 8.4
2018-May-19 04:00N 31°11' E 032°20'3 6.2
2018-May-19 03:30N 31°14' E 032°21'4 8.7
2018-May-19 03:01N 31°19' E 032°22'4 7.7
2018-May-19 02:31N 31°22' E 032°23'510.0
2018-May-19 02:00N 31°27' E 032°24'5 3.3
2018-May-19 00:23N 31°23' E 032°20'0 0.0
2018-May-18 22:16N 31°23' E 032°20'0 0.2
2018-May-18 21:58N 31°23' E 032°20'0 0.4
2018-May-18 21:31N 31°24' E 032°20'0 0.4
2018-May-18 21:00N 31°24' E 032°20'3 5.9
2018-May-18 20:29N 31°27' E 032°18'1312.4
2018-May-18 19:24N 31°36' E 032°07'713.6
2018-May-18 18:54N 31°41' E 032°02'513.3
2018-May-18 18:30N 31°45' E 031°57'713.2
2018-May-18 18:01N 31°47' E 031°50'713.2
2018-May-18 17:29N 31°49' E 031°42'713.2
2018-May-18 16:55N 31°51' E 031°34'713.4
2018-May-18 16:26N 31°54' E 031°27'613.5
2018-May-18 16:01N 31°55' E 031°20'813.6
2018-May-18 15:25N 31°58' E 031°11'613.6
2018-May-18 14:58N 31°59' E 031°04'613.5
2018-May-18 14:30N 32°01' E 030°57'713.4
2018-May-18 13:59N 32°03' E 030°49'613.4
2018-May-18 13:30N 32°05' E 030°42'  
2018-May-16 03:25N 36°03' E 014°53'813.7
2018-May-16 02:49N 36°06' E 014°44'513.9
2018-May-16 02:29N 36°08' E 014°39'914.0
2018-May-16 01:52N 36°12' E 014°29'714.1
2018-May-16 01:23N 36°14' E 014°21'514.0
2018-May-16 01:00N 36°16' E 014°15'714.1
2018-May-16 00:30N 36°19' E 014°07'714.2
2018-May-16 00:00N 36°22' E 013°59'714.3
2018-May-15 23:30N 36°25' E 013°51'714.2
2018-May-15 22:59N 36°28' E 013°42'714.2
2018-May-15 22:30N 36°31' E 013°35'714.1
2018-May-15 22:00N 36°33' E 013°26'714.0
2018-May-15 21:30N 36°36' E 013°18'713.9
2018-May-15 21:00N 36°39' E 013°11'713.9
2018-May-15 20:30N 36°42' E 013°03'713.9
2018-May-15 20:00N 36°45' E 012°55'54013.8
2018-May-14 04:57N 37°01' E 001°40'614.1
2018-May-14 04:29N 37°00' E 001°32'1414.1
2018-May-14 03:29N 36°57' E 001°14'714.0
2018-May-14 03:00N 36°56' E 001°06'714.0
2018-May-14 02:30N 36°54' E 000°58'714.1
2018-May-14 02:00N 36°53' E 000°49'714.0
2018-May-14 01:30N 36°51' E 000°40'713.8
2018-May-14 00:58N 36°50' E 000°31'613.6
2018-May-14 00:29N 36°48' E 000°23'713.5
2018-May-14 00:00N 36°47' E 000°15'713.4
2018-May-13 23:30N 36°45' E 000°07'2613.6
2018-May-13 21:34N 36°40' W 000°25'22314.0
2018-May-13 05:35N 36°03' W 004°58'110.5
2018-May-13 05:30N 36°03' W 004°59'815.5
2018-May-13 04:58N 36°02' W 005°09'613.7
2018-May-13 04:30N 36°00' W 005°17'815.7
2018-May-13 04:01N 35°58' W 005°26'916.5
2018-May-13 03:29N 35°55' W 005°36'45113.5
2018-May-11 18:00N 37°18' W 014°48'16413.7 300 / 151028.0 5.4 18.015.0
2018-May-11 06:00N 37°48' W 018°12'15913.2 260 / 151025.010.8 17.014.0
2018-May-10 18:00N 38°18' W 021°30'12913.6 280 / 201026.010.8 20.017.0
2018-May-10 08:30N 38°39' W 024°13'713.7
2018-May-10 08:00N 38°40' W 024°21'713.7
2018-May-10 07:30N 38°40' W 024°30'713.7
2018-May-10 07:00N 38°41' W 024°39'713.7
2018-May-10 06:30N 38°42' W 024°48'713.9
2018-May-10 06:00N 38°43' W 024°56'3205.7
2018-May-10 06:00N 38°42' W 025°00'4 9.3 290 / 101027.010.8 17.014.0
2018-May-10 05:30N 38°44' W 025°05'714.1
2018-May-10 05:00N 38°45' W 025°14'714.2
2018-May-10 04:30N 38°45' W 025°23'714.4
2018-May-10 04:00N 38°46' W 025°32'714.5
2018-May-10 03:31N 38°47' W 025°42'714.6
2018-May-10 03:00N 38°48' W 025°51'714.1
2018-May-10 02:30N 38°49' W 025°60'714.1
2018-May-10 02:01N 38°50' W 026°09'713.9
2018-May-10 01:30N 38°50' W 026°18'714.0
2018-May-10 01:00N 38°51' W 026°27'713.8
2018-May-10 00:30N 38°52' W 026°36'713.6
2018-May-10 00:01N 38°52' W 026°44'713.9
2018-May-09 23:30N 38°53' W 026°53'714.2
2018-May-09 23:00N 38°54' W 027°02'714.5
2018-May-09 22:30N 38°54' W 027°11'714.2
2018-May-09 22:01N 38°55' W 027°21'714.2
2018-May-09 21:31N 38°55' W 027°30'714.1
2018-May-09 21:00N 38°54' W 027°39'713.8
2018-May-09 20:31N 38°54' W 027°48'713.7
2018-May-09 20:00N 38°54' W 027°56'713.6
2018-May-09 19:30N 38°54' W 028°05'713.4
2018-May-09 19:01N 38°53' W 028°14'713.5
2018-May-09 18:30N 38°53' W 028°22'713.5
2018-May-09 18:00N 38°53' W 028°31'713.4
2018-May-09 17:31N 38°54' W 028°39'713.2
2018-May-09 17:00N 38°54' W 028°48'713.5
2018-May-09 16:30N 38°55' W 028°57'713.5
2018-May-09 16:00N 38°55' W 029°05'815.6
2018-May-09 15:31N 38°55' W 029°15'917.5
2018-May-09 15:00N 38°56' W 029°26'917.3
2018-May-09 14:30N 38°56' W 029°38'815.0
2018-May-09 14:00N 38°57' W 029°47'713.6
2018-May-09 13:30N 38°57' W 029°56'713.7
2018-May-09 13:00N 38°57' W 030°05'713.6
2018-May-09 12:31N 38°58' W 030°14'713.6
2018-May-09 12:01N 38°58' W 030°22'713.6
2018-May-09 11:31N 38°58' W 030°31'713.7
2018-May-09 10:59N 38°59' W 030°40'2013.7
2018-May-09 09:33N 38°60' W 031°06'114.4
2018-May-09 09:30N 38°60' W 031°06'813.6
2018-May-09 08:54N 38°60' W 031°17'813.9
2018-May-09 08:21N 39°00' W 031°27'514.2
2018-May-09 07:58N 39°00' W 031°34'  
Track history (hours):
 
Tides and Currents Weather Stations Pressure Air Temp Water Temp Dewpoint Dewpoint Depression Visibility Wind Speed Wind Dir Waves Ship Positions

Zim California

Last reported at 2018-May-19 06:04 UTC. Time now 2018-May-24 00:36 UTC.
Position N 30°55' E 032°19'.

Type: Cargo ship. MMSI: 428010000.

Date/timePositionNaut miles runAvg speedWind from/ knotsBaromVisibWave heightAir tempDewpointWater temp
2018-May-19 06:04N 30°55' E 032°19'6 8.4
2018-May-19 05:18N 31°01' E 032°19'5 7.9
2018-May-19 04:41N 31°06' E 032°19'2 8.3
2018-May-19 04:29N 31°07' E 032°19'4 8.4
2018-May-19 04:00N 31°11' E 032°20'3 6.2
2018-May-19 03:30N 31°14' E 032°21'4 8.7
2018-May-19 03:01N 31°19' E 032°22'4 7.7
2018-May-19 02:31N 31°22' E 032°23'510.0
2018-May-19 02:00N 31°27' E 032°24'5 3.3
2018-May-19 00:23N 31°23' E 032°20'0 0.0
2018-May-18 22:16N 31°23' E 032°20'0 0.2
2018-May-18 21:58N 31°23' E 032°20'0 0.4
2018-May-18 21:31N 31°24' E 032°20'0 0.4
2018-May-18 21:00N 31°24' E 032°20'3 5.9
2018-May-18 20:29N 31°27' E 032°18'1312.4
2018-May-18 19:24N 31°36' E 032°07'713.6
2018-May-18 18:54N 31°41' E 032°02'513.3
2018-May-18 18:30N 31°45' E 031°57'713.2
2018-May-18 18:01N 31°47' E 031°50'713.2
2018-May-18 17:29N 31°49' E 031°42'713.2
2018-May-18 16:55N 31°51' E 031°34'713.4
2018-May-18 16:26N 31°54' E 031°27'613.5
2018-May-18 16:01N 31°55' E 031°20'813.6
2018-May-18 15:25N 31°58' E 031°11'613.6
2018-May-18 14:58N 31°59' E 031°04'613.5
2018-May-18 14:30N 32°01' E 030°57'713.4
2018-May-18 13:59N 32°03' E 030°49'613.4
2018-May-18 13:30N 32°05' E 030°42'  
2018-May-16 03:25N 36°03' E 014°53'813.7
2018-May-16 02:49N 36°06' E 014°44'513.9
2018-May-16 02:29N 36°08' E 014°39'914.0
2018-May-16 01:52N 36°12' E 014°29'714.1
2018-May-16 01:23N 36°14' E 014°21'514.0
2018-May-16 01:00N 36°16' E 014°15'714.1
2018-May-16 00:30N 36°19' E 014°07'714.2
2018-May-16 00:00N 36°22' E 013°59'714.3
2018-May-15 23:30N 36°25' E 013°51'714.2
2018-May-15 22:59N 36°28' E 013°42'714.2
2018-May-15 22:30N 36°31' E 013°35'714.1
2018-May-15 22:00N 36°33' E 013°26'714.0
2018-May-15 21:30N 36°36' E 013°18'713.9
2018-May-15 21:00N 36°39' E 013°11'713.9
2018-May-15 20:30N 36°42' E 013°03'713.9
2018-May-15 20:00N 36°45' E 012°55'54013.8
2018-May-14 04:57N 37°01' E 001°40'614.1
2018-May-14 04:29N 37°00' E 001°32'1414.1
2018-May-14 03:29N 36°57' E 001°14'714.0
2018-May-14 03:00N 36°56' E 001°06'714.0
2018-May-14 02:30N 36°54' E 000°58'714.1
2018-May-14 02:00N 36°53' E 000°49'714.0
2018-May-14 01:30N 36°51' E 000°40'713.8
2018-May-14 00:58N 36°50' E 000°31'613.6
2018-May-14 00:29N 36°48' E 000°23'713.5
2018-May-14 00:00N 36°47' E 000°15'713.4
2018-May-13 23:30N 36°45' E 000°07'2613.6
2018-May-13 21:34N 36°40' W 000°25'22314.0
2018-May-13 05:35N 36°03' W 004°58'110.5
2018-May-13 05:30N 36°03' W 004°59'815.5
2018-May-13 04:58N 36°02' W 005°09'613.7
2018-May-13 04:30N 36°00' W 005°17'815.7
2018-May-13 04:01N 35°58' W 005°26'916.5
2018-May-13 03:29N 35°55' W 005°36'45113.5
2018-May-11 18:00N 37°18' W 014°48'16413.7 300 / 151028.0 5.4 18.015.0
2018-May-11 06:00N 37°48' W 018°12'15913.2 260 / 151025.010.8 17.014.0
2018-May-10 18:00N 38°18' W 021°30'12913.6 280 / 201026.010.8 20.017.0
2018-May-10 08:30N 38°39' W 024°13'713.7
2018-May-10 08:00N 38°40' W 024°21'713.7
2018-May-10 07:30N 38°40' W 024°30'713.7
2018-May-10 07:00N 38°41' W 024°39'713.7
2018-May-10 06:30N 38°42' W 024°48'713.9
2018-May-10 06:00N 38°43' W 024°56'3205.7
2018-May-10 06:00N 38°42' W 025°00'4 9.3 290 / 101027.010.8 17.014.0
2018-May-10 05:30N 38°44' W 025°05'714.1
2018-May-10 05:00N 38°45' W 025°14'714.2
2018-May-10 04:30N 38°45' W 025°23'714.4
2018-May-10 04:00N 38°46' W 025°32'714.5
2018-May-10 03:31N 38°47' W 025°42'714.6
2018-May-10 03:00N 38°48' W 025°51'714.1
2018-May-10 02:30N 38°49' W 025°60'714.1
2018-May-10 02:01N 38°50' W 026°09'713.9
2018-May-10 01:30N 38°50' W 026°18'714.0
2018-May-10 01:00N 38°51' W 026°27'713.8
2018-May-10 00:30N 38°52' W 026°36'713.6
2018-May-10 00:01N 38°52' W 026°44'713.9
2018-May-09 23:30N 38°53' W 026°53'714.2
2018-May-09 23:00N 38°54' W 027°02'714.5
2018-May-09 22:30N 38°54' W 027°11'714.2
2018-May-09 22:01N 38°55' W 027°21'714.2
2018-May-09 21:31N 38°55' W 027°30'714.1
2018-May-09 21:00N 38°54' W 027°39'713.8
2018-May-09 20:31N 38°54' W 027°48'713.7
2018-May-09 20:00N 38°54' W 027°56'713.6
2018-May-09 19:30N 38°54' W 028°05'713.4
2018-May-09 19:01N 38°53' W 028°14'713.5
2018-May-09 18:30N 38°53' W 028°22'713.5
2018-May-09 18:00N 38°53' W 028°31'713.4
2018-May-09 17:31N 38°54' W 028°39'713.2
2018-May-09 17:00N 38°54' W 028°48'713.5
2018-May-09 16:30N 38°55' W 028°57'713.5
2018-May-09 16:00N 38°55' W 029°05'815.6
2018-May-09 15:31N 38°55' W 029°15'917.5
2018-May-09 15:00N 38°56' W 029°26'917.3
2018-May-09 14:30N 38°56' W 029°38'815.0
2018-May-09 14:00N 38°57' W 029°47'713.6
2018-May-09 13:30N 38°57' W 029°56'713.7
2018-May-09 13:00N 38°57' W 030°05'713.6
2018-May-09 12:31N 38°58' W 030°14'713.6
2018-May-09 12:01N 38°58' W 030°22'713.6
2018-May-09 11:31N 38°58' W 030°31'713.7
2018-May-09 10:59N 38°59' W 030°40'2013.7
2018-May-09 09:33N 38°60' W 031°06'114.4
2018-May-09 09:30N 38°60' W 031°06'813.6
2018-May-09 08:54N 38°60' W 031°17'813.9
2018-May-09 08:21N 39°00' W 031°27'514.2
2018-May-09 07:58N 39°00' W 031°34'  

Dump ship's entire track history